createdAt,value
2022-11-28T00:01:31.441Z,100962.69
2022-11-28T00:03:59.521Z,100960.66
2022-11-28T00:06:29.943Z,100959.84
2022-11-28T00:08:59.931Z,100960.13
2022-11-28T00:11:28.438Z,100967.03
2022-11-28T00:13:58.892Z,100957.97
2022-11-28T00:16:27.014Z,100953.34
2022-11-28T00:18:57.296Z,100948.78
2022-11-28T00:21:25.531Z,100954.88
2022-11-28T00:23:54.839Z,100961.03
2022-11-28T00:26:25.260Z,100951.06
2022-11-28T00:28:53.702Z,100950.13
2022-11-28T00:31:23.454Z,100952.69
2022-11-28T00:33:51.685Z,100957.94
2022-11-28T00:36:20.606Z,100949.91
2022-11-28T00:38:49.070Z,100944.56
2022-11-28T00:41:20.184Z,100939.13
2022-11-28T00:43:49.615Z,100939.97
2022-11-28T00:46:18.678Z,100941.81
2022-11-28T00:48:46.694Z,100933.78
2022-11-28T00:51:16.614Z,100939.03
2022-11-28T00:53:47.907Z,100927.44
2022-11-28T00:56:19.564Z,100933.78
2022-11-28T00:58:49.714Z,100926.59
2022-11-28T01:01:20.345Z,100925.63
2022-11-28T01:03:50.035Z,100919.41
2022-11-28T01:06:23.367Z,100914.06
2022-11-28T01:08:51.853Z,100909.66
2022-11-28T01:11:22.586Z,100908.81
2022-11-28T01:13:55.616Z,100907.00
2022-11-28T01:16:23.899Z,100915.03
2022-11-28T01:18:52.228Z,100907.00
2022-11-28T01:21:20.926Z,100903.47
2022-11-28T01:23:50.921Z,100905.28
2022-11-28T01:26:22.747Z,100899.91
2022-11-28T01:28:51.063Z,100893.59
2022-11-28T01:31:21.108Z,100891.97
2022-11-28T01:33:49.593Z,100890.16
2022-11-28T01:36:18.593Z,100891.97
2022-11-28T01:38:48.092Z,100892.81
2022-11-28T01:41:18.371Z,100892.81
2022-11-28T01:44:02.564Z,100892.81
2022-11-28T01:46:31.490Z,100892.81
2022-11-28T01:49:04.786Z,100896.34
2022-11-28T01:51:33.837Z,100895.50
2022-11-28T01:54:02.486Z,100891.00
2022-11-28T01:56:36.346Z,100891.91
2022-11-28T01:59:09.748Z,100897.31
2022-11-28T02:01:38.466Z,100893.69
2022-11-28T02:04:07.399Z,100891.97
2022-11-28T02:06:35.504Z,100891.97
2022-11-28T02:09:03.587Z,100884.03
2022-11-28T02:12:10.952Z,100882.22
2022-11-28T02:15:00.621Z,100879.53
2022-11-28T02:17:41.754Z,100878.69
2022-11-28T02:20:49.549Z,100875.16
2022-11-28T02:23:24.640Z,100867.97
2022-11-28T02:26:17.997Z,100877.84
2022-11-28T02:29:33.173Z,100876.00
2022-11-28T02:32:14.921Z,100878.69
2022-11-28T02:34:52.057Z,100879.72
2022-11-28T02:37:27.247Z,100877.91
2022-11-28T02:40:08.542Z,100869.03
2022-11-28T02:42:47.846Z,100871.69
2022-11-28T02:45:21.594Z,100868.16
2022-11-28T02:47:55.758Z,100874.38
2022-11-28T02:50:28.040Z,100865.47
2022-11-28T02:52:57.821Z,100864.53
2022-11-28T02:55:27.626Z,100865.47
2022-11-28T02:57:56.444Z,100860.97
2022-11-28T03:00:27.917Z,100859.16
2022-11-28T03:03:20.139Z,100860.13
2022-11-28T03:05:53.363Z,100861.09
2022-11-28T03:08:43.407Z,100856.59
2022-11-28T03:11:20.428Z,100850.38
2022-11-28T03:13:55.479Z,100852.22
2022-11-28T03:16:29.033Z,100857.63
2022-11-28T03:19:08.023Z,100863.00
2022-11-28T03:21:41.635Z,100864.69
2022-11-28T03:24:15.012Z,100861.28
2022-11-28T03:26:53.357Z,100856.78
2022-11-28T03:29:25.574Z,100862.13
2022-11-28T03:31:55.852Z,100861.28
2022-11-28T03:34:30.739Z,100871.88
2022-11-28T03:37:02.689Z,100865.78
2022-11-28T03:39:38.976Z,100865.78
2022-11-28T03:42:14.169Z,100860.50
2022-11-28T03:44:47.504Z,100853.44
2022-11-28T03:47:18.516Z,100860.59
2022-11-28T03:49:52.570Z,100865.97
2022-11-28T03:52:26.753Z,100865.97
2022-11-28T03:54:59.689Z,100863.28
2022-11-28T03:57:35.156Z,100869.59
2022-11-28T04:00:07.454Z,100861.56
2022-11-28T04:02:37.858Z,100864.13
2022-11-28T04:05:19.506Z,100865.09
2022-11-28T04:07:53.726Z,100865.97
2022-11-28T04:10:26.416Z,100865.09
2022-11-28T04:13:00.086Z,100867.00
2022-11-28T04:15:35.479Z,100867.78
2022-11-28T04:18:15.099Z,100865.09
2022-11-28T04:20:47.852Z,100870.56
2022-11-28T04:23:19.534Z,100862.53
2022-11-28T04:25:53.763Z,100868.75
2022-11-28T04:28:25.195Z,100876.78
2022-11-28T04:30:54.800Z,100867.00
2022-11-28T04:33:25.980Z,100874.19
2022-11-28T04:35:57.700Z,100870.66
2022-11-28T04:38:28.172Z,100874.19
2022-11-28T04:41:01.549Z,100865.41
2022-11-28T04:43:35.135Z,100867.28
2022-11-28T04:46:07.956Z,100874.28
2022-11-28T04:48:36.017Z,100869.91
2022-11-28T04:51:17.130Z,100869.91
2022-11-28T04:53:51.102Z,100876.19
2022-11-28T04:56:22.872Z,100867.28
2022-11-28T04:58:52.376Z,100869.97
2022-11-28T05:01:25.227Z,100864.63
2022-11-28T05:03:53.931Z,100874.38
2022-11-28T05:06:31.889Z,100864.63
2022-11-28T05:09:00.807Z,100866.44
2022-11-28T05:11:28.993Z,100869.22
2022-11-28T05:13:57.501Z,100870.09
2022-11-28T05:16:25.567Z,100873.63
2022-11-28T05:18:53.569Z,100886.16
2022-11-28T05:21:21.843Z,100874.56
2022-11-28T05:23:51.352Z,100879.94
2022-11-28T05:26:20.897Z,100877.25
2022-11-28T05:28:51.259Z,100879.06
2022-11-28T05:31:20.403Z,100880.00
2022-11-28T05:33:48.437Z,100882.59
2022-11-28T05:36:17.308Z,100873.78
2022-11-28T05:38:45.796Z,100884.50
2022-11-28T05:41:21.243Z,100885.38
2022-11-28T05:43:49.145Z,100895.22
2022-11-28T05:46:17.492Z,100884.50
2022-11-28T05:48:45.765Z,100880.13
2022-11-28T05:51:13.860Z,100897.03
2022-11-28T05:53:42.166Z,100897.13
2022-11-28T05:56:11.170Z,100889.00
2022-11-28T05:58:40.855Z,100900.66
2022-11-28T06:01:13.651Z,100895.38
2022-11-28T06:03:42.117Z,100901.53
2022-11-28T06:06:13.908Z,100897.13
2022-11-28T06:08:42.013Z,100892.81
2022-11-28T06:11:10.290Z,100895.38
2022-11-28T06:13:38.348Z,100893.69
2022-11-28T06:16:10.721Z,100891.84
2022-11-28T06:18:39.321Z,100896.34
2022-11-28T06:21:08.920Z,100892.81
2022-11-28T06:23:37.105Z,100893.69
2022-11-28T06:26:06.230Z,100890.16
2022-11-28T06:28:35.024Z,100891.97
2022-11-28T06:31:03.479Z,100893.84
2022-11-28T06:33:32.853Z,100901.81
2022-11-28T06:36:02.109Z,100896.47
2022-11-28T06:38:30.692Z,100894.72
2022-11-28T06:40:59.248Z,100892.16
2022-11-28T06:43:27.775Z,100897.50
2022-11-28T06:45:56.029Z,100901.88
2022-11-28T06:48:24.282Z,100907.25
2022-11-28T06:50:54.582Z,100904.56
2022-11-28T06:53:24.219Z,100906.38
2022-11-28T06:55:54.105Z,100906.38
2022-11-28T06:58:22.098Z,100908.22
2022-11-28T07:00:50.049Z,100905.53
2022-11-28T07:03:18.110Z,100901.03
2022-11-28T07:05:46.047Z,100905.63
2022-11-28T07:08:15.554Z,100912.81
2022-11-28T07:10:43.557Z,100917.19
2022-11-28T07:13:11.564Z,100920.84
2022-11-28T07:15:39.907Z,100916.22
2022-11-28T07:18:07.805Z,100910.13
2022-11-28T07:20:36.529Z,100920.84
2022-11-28T07:23:04.446Z,100924.44
2022-11-28T07:25:33.859Z,100928.94
2022-11-28T07:28:01.808Z,100912.88
2022-11-28T07:30:29.797Z,100919.09
2022-11-28T07:32:57.792Z,100926.25
2022-11-28T07:35:25.680Z,100933.44
2022-11-28T07:37:53.695Z,100928.09
2022-11-28T07:40:22.853Z,100932.47
2022-11-28T07:42:52.664Z,100930.75
2022-11-28T07:45:20.672Z,100929.03
2022-11-28T07:47:48.561Z,100932.81
2022-11-28T07:50:16.671Z,100930.94
2022-11-28T07:52:44.706Z,100930.03
2022-11-28T07:55:12.833Z,100939.59
2022-11-28T07:57:40.802Z,100934.19
2022-11-28T08:00:11.586Z,100930.53
2022-11-28T08:02:39.942Z,100930.38
2022-11-28T08:05:08.387Z,100936.41
2022-11-28T08:07:36.421Z,100945.19
2022-11-28T08:10:05.533Z,100954.00
2022-11-28T08:12:33.619Z,100943.97
2022-11-28T08:15:01.654Z,100943.84
2022-11-28T08:17:30.980Z,100944.66
2022-11-28T08:19:58.901Z,100935.66
2022-11-28T08:22:26.862Z,100941.84
2022-11-28T08:24:54.954Z,100948.94
2022-11-28T08:27:22.854Z,100949.03
2022-11-28T08:29:53.455Z,100945.50
2022-11-28T08:32:21.961Z,100946.34
2022-11-28T08:34:51.299Z,100942.72
2022-11-28T08:37:19.270Z,100948.84
2022-11-28T08:39:47.237Z,100946.06
2022-11-28T08:42:15.144Z,100947.97
2022-11-28T08:44:43.101Z,100956.78
2022-11-28T08:47:11.002Z,100954.94
2022-11-28T08:49:39.449Z,100961.91
2022-11-28T08:52:08.701Z,100963.66
2022-11-28T08:54:36.732Z,100969.00
2022-11-28T08:57:04.653Z,100959.16
2022-11-28T08:59:32.961Z,100967.09
2022-11-28T09:02:00.891Z,100965.28
2022-11-28T09:04:29.653Z,100965.19
2022-11-28T09:06:57.638Z,100970.56
2022-11-28T09:09:31.471Z,100968.72
2022-11-28T09:12:00.621Z,100972.28
2022-11-28T09:14:28.826Z,100980.38
2022-11-28T09:16:56.898Z,100971.41
2022-11-28T09:19:25.380Z,100973.97
2022-11-28T09:21:57.676Z,100979.34
2022-11-28T09:24:27.487Z,100978.47
2022-11-28T09:26:55.432Z,100973.13
2022-11-28T09:29:26.397Z,100968.72
2022-11-28T09:31:54.336Z,100974.84
2022-11-28T09:34:22.424Z,100974.94
2022-11-28T09:36:50.307Z,100977.50
2022-11-28T09:39:18.271Z,100978.47
2022-11-28T09:41:58.185Z,100973.22
2022-11-28T09:44:34.648Z,100975.00
2022-11-28T09:47:07.207Z,100975.13
2022-11-28T09:49:41.490Z,100986.69
2022-11-28T09:52:26.013Z,100980.56
2022-11-28T09:55:01.287Z,100988.50
2022-11-28T09:57:35.643Z,100989.47
2022-11-28T10:00:08.034Z,100985.94
2022-11-28T10:02:42.116Z,100987.75
2022-11-28T10:05:24.323Z,100995.78
2022-11-28T10:08:06.949Z,100994.88
2022-11-28T10:10:42.258Z,100993.09
2022-11-28T10:13:19.398Z,100982.41
2022-11-28T10:15:56.360Z,100990.44
2022-11-28T10:18:34.742Z,100988.59
2022-11-28T10:21:06.719Z,100990.44
2022-11-28T10:23:40.771Z,100989.47
2022-11-28T10:26:13.877Z,100998.47
2022-11-28T10:28:50.580Z,100999.31
2022-11-28T10:31:27.858Z,100996.63
2022-11-28T10:34:00.243Z,100994.81
2022-11-28T10:36:29.345Z,100991.28
2022-11-28T10:38:58.005Z,100993.97
2022-11-28T10:41:33.703Z,100989.53
2022-11-28T10:44:08.891Z,100990.44
2022-11-28T10:46:51.984Z,100986.84
2022-11-28T10:49:32.101Z,100987.75
2022-11-28T10:52:10.008Z,100993.97
2022-11-28T10:55:01.804Z,100995.78
2022-11-28T10:57:39.490Z,100992.13
2022-11-28T11:00:13.473Z,100993.09
2022-11-28T11:02:46.244Z,100987.75
2022-11-28T11:05:16.789Z,100986.84
2022-11-28T11:07:50.286Z,100986.84
2022-11-28T11:10:22.261Z,100986.78
2022-11-28T11:12:54.036Z,100992.13
2022-11-28T11:15:30.959Z,100986.78
2022-11-28T11:17:59.766Z,100987.66
2022-11-28T11:20:37.833Z,100977.78
2022-11-28T11:23:16.462Z,100981.34
2022-11-28T11:25:50.743Z,100978.75
2022-11-28T11:28:44.249Z,100976.09
2022-11-28T11:31:27.328Z,100980.56
2022-11-28T11:34:05.308Z,100972.63
2022-11-28T11:36:35.395Z,100981.50
2022-11-28T11:39:09.048Z,100972.63
2022-11-28T11:41:37.323Z,100978.84
2022-11-28T11:44:29.341Z,100981.63
2022-11-28T11:47:05.104Z,100977.97
2022-11-28T11:49:35.942Z,100982.47
2022-11-28T11:52:15.368Z,100988.69
2022-11-28T11:54:57.783Z,100986.00
2022-11-28T11:57:35.019Z,100980.56
2022-11-28T12:00:08.059Z,100986.78
2022-11-28T12:02:42.037Z,100994.81
2022-11-28T12:05:13.791Z,100999.22
2022-11-28T12:07:52.014Z,101000.06
2022-11-28T12:10:25.227Z,100996.44
2022-11-28T12:12:53.659Z,100997.31
2022-11-28T12:15:32.439Z,101001.72
2022-11-28T12:18:16.744Z,101004.38
2022-11-28T12:21:06.080Z,101008.03
2022-11-28T12:23:50.322Z,101007.06
2022-11-28T12:26:24.722Z,100999.03
2022-11-28T12:29:09.537Z,100997.22
2022-11-28T12:31:49.615Z,100997.31
2022-11-28T12:34:32.952Z,100998.06
2022-11-28T12:37:12.379Z,100999.03
2022-11-28T12:39:53.668Z,101000.75
2022-11-28T12:42:35.751Z,100994.53
2022-11-28T12:45:30.622Z,101000.75
2022-11-28T12:48:09.520Z,100999.78
2022-11-28T12:50:41.302Z,100995.31
2022-11-28T12:53:27.050Z,100993.56
2022-11-28T12:56:01.810Z,100996.25
2022-11-28T12:58:37.489Z,100997.03
2022-11-28T13:01:22.120Z,100998.84
2022-11-28T13:04:03.472Z,101003.34
2022-11-28T13:06:41.473Z,101002.41
2022-11-28T13:09:32.574Z,100998.00
2022-11-28T13:12:11.018Z,101002.41
2022-11-28T13:14:49.053Z,100999.72
2022-11-28T13:17:28.160Z,101008.59
2022-11-28T13:20:07.821Z,101003.25
2022-11-28T13:22:49.395Z,101004.09
2022-11-28T13:25:25.131Z,101002.28
2022-11-28T13:28:03.098Z,101003.16
2022-11-28T13:30:37.652Z,101011.19
2022-11-28T13:33:16.411Z,101011.09
2022-11-28T13:35:48.216Z,101018.19
2022-11-28T13:38:46.791Z,101015.50
2022-11-28T13:41:35.788Z,101022.56
2022-11-28T13:44:15.523Z,101011.84
2022-11-28T13:46:44.531Z,101016.25
2022-11-28T13:49:21.944Z,101011.78
2022-11-28T13:51:50.245Z,101012.66
2022-11-28T13:54:52.839Z,101011.69
2022-11-28T13:57:30.137Z,101016.06
2022-11-28T14:00:03.795Z,101024.03
2022-11-28T14:02:41.945Z,101015.16
2022-11-28T14:05:26.604Z,101012.47
2022-11-28T14:07:56.084Z,101023.94
2022-11-28T14:10:40.645Z,101017.72
2022-11-28T14:13:26.890Z,101022.03
2022-11-28T14:16:07.830Z,101025.84
2022-11-28T14:18:57.615Z,101029.38
2022-11-28T14:21:34.663Z,101031.09
2022-11-28T14:24:11.743Z,101033.59
2022-11-28T14:26:43.131Z,101035.22
2022-11-28T14:29:22.672Z,101040.41
2022-11-28T14:32:21.593Z,101041.94
2022-11-28T14:34:45.503Z,101045.41
2022-11-28T14:37:37.282Z,101054.19
2022-11-28T14:40:44.238Z,101052.28
2022-11-28T14:43:29.920Z,101046.75
2022-11-28T14:46:37.374Z,101055.53
2022-11-28T14:49:23.279Z,101059.00
2022-11-28T14:52:42.168Z,101062.44
2022-11-28T14:55:20.577Z,101057.78
2022-11-28T14:57:59.207Z,101055.00
2022-11-28T15:00:32.457Z,101052.25
2022-11-28T15:03:28.570Z,101052.16
2022-11-28T15:06:02.304Z,101049.47
2022-11-28T15:08:45.533Z,101051.97
2022-11-28T15:11:36.433Z,101053.69
2022-11-28T15:14:16.675Z,101056.28
2022-11-28T15:16:50.705Z,101056.06
2022-11-28T15:19:25.789Z,101062.22
2022-11-28T15:21:57.123Z,101059.44
2022-11-28T15:24:28.796Z,101060.22
2022-11-28T15:26:58.890Z,101064.41
2022-11-28T15:29:28.998Z,101070.63
2022-11-28T15:32:01.370Z,101076.78
2022-11-28T15:34:31.939Z,101079.34
2022-11-28T15:37:02.016Z,101074.75
2022-11-28T15:39:35.112Z,101070.28
2022-11-28T15:42:06.602Z,101087.09
2022-11-28T15:44:36.568Z,101092.38
2022-11-28T15:47:06.828Z,101076.50
2022-11-28T15:49:38.571Z,101084.53
2022-11-28T15:52:06.598Z,101081.94
2022-11-28T15:54:37.818Z,101086.44
2022-11-28T15:57:07.028Z,101085.69
2022-11-28T15:59:36.385Z,101091.13
2022-11-28T16:02:16.518Z,101083.94
2022-11-28T16:04:46.067Z,101091.91
2022-11-28T16:07:16.677Z,101092.75
2022-11-28T16:09:55.910Z,101098.13
2022-11-28T16:12:24.351Z,101096.19
2022-11-28T16:14:55.363Z,101098.78
2022-11-28T16:17:28.869Z,101094.28
2022-11-28T16:19:57.747Z,101106.72
2022-11-28T16:22:31.392Z,101106.72
2022-11-28T16:25:11.857Z,101102.16
2022-11-28T16:27:45.544Z,101103.97
2022-11-28T16:30:37.420Z,101105.69
2022-11-28T16:33:36.649Z,101110.09
2022-11-28T16:36:21.524Z,101109.22
2022-11-28T16:38:51.538Z,101112.69
2022-11-28T16:41:23.436Z,101114.47
2022-11-28T16:43:55.359Z,101117.09
2022-11-28T16:46:25.727Z,101126.09
2022-11-28T16:48:58.648Z,101125.19
2022-11-28T16:51:35.612Z,101131.44
2022-11-28T16:54:28.858Z,101130.47
2022-11-28T16:57:08.685Z,101129.63
2022-11-28T16:59:36.623Z,101135.06
2022-11-28T17:02:05.203Z,101140.44
2022-11-28T17:04:34.805Z,101147.59
2022-11-28T17:07:05.324Z,101146.75
2022-11-28T17:09:34.208Z,101145.88
2022-11-28T17:12:06.233Z,101152.22
2022-11-28T17:14:34.341Z,101154.03
2022-11-28T17:17:02.224Z,101144.25
2022-11-28T17:19:30.410Z,101148.75
2022-11-28T17:22:00.693Z,101158.63
2022-11-28T17:24:34.289Z,101155.16
2022-11-28T17:27:02.532Z,101154.28
2022-11-28T17:29:30.719Z,101158.78
2022-11-28T17:31:59.486Z,101153.53
2022-11-28T17:34:30.814Z,101163.41
2022-11-28T17:37:00.633Z,101158.03
2022-11-28T17:39:29.772Z,101160.72
2022-11-28T17:41:58.769Z,101161.66
2022-11-28T17:44:30.955Z,101172.38
2022-11-28T17:47:00.522Z,101170.66
2022-11-28T17:49:28.993Z,101166.25
2022-11-28T17:51:57.612Z,101169.78
2022-11-28T17:54:27.886Z,101171.63
2022-11-28T17:56:56.352Z,101174.47
2022-11-28T17:59:27.557Z,101171.63
2022-11-28T18:01:55.587Z,101178.66
2022-11-28T18:04:23.578Z,101176.84
2022-11-28T18:06:51.582Z,101180.28
2022-11-28T18:09:19.626Z,101185.66
2022-11-28T18:11:48.903Z,101185.56
2022-11-28T18:14:19.588Z,101183.75
2022-11-28T18:16:48.121Z,101182.78
2022-11-28T18:19:16.194Z,101190.72
2022-11-28T18:21:44.143Z,101195.06
2022-11-28T18:24:12.073Z,101193.22
2022-11-28T18:26:40.637Z,101195.72
2022-11-28T18:29:09.928Z,101199.16
2022-11-28T18:31:37.979Z,101198.31
2022-11-28T18:34:08.033Z,101200.81
2022-11-28T18:36:37.641Z,101196.31
2022-11-28T18:39:08.945Z,101206.97
2022-11-28T18:41:36.911Z,101205.31
2022-11-28T18:44:06.196Z,101214.09
2022-11-28T18:46:36.051Z,101198.03
2022-11-28T18:49:08.013Z,101195.28
2022-11-28T18:51:36.774Z,101204.97
2022-11-28T18:54:06.798Z,101207.53
2022-11-28T18:56:35.034Z,101205.72
2022-11-28T18:59:03.030Z,101202.06
2022-11-28T19:01:33.077Z,101211.88
2022-11-28T19:04:03.996Z,101205.72
2022-11-28T19:06:33.032Z,101204.06
2022-11-28T19:09:02.481Z,101217.56
2022-11-28T19:11:30.607Z,101216.78
2022-11-28T19:13:59.022Z,101214.22
2022-11-28T19:16:28.775Z,101206.19
2022-11-28T19:18:57.320Z,101212.50
2022-11-28T19:21:28.353Z,101215.19
2022-11-28T19:23:57.727Z,101214.31
2022-11-28T19:26:27.842Z,101221.28
2022-11-28T19:28:56.755Z,101224.06
2022-11-28T19:31:28.068Z,101217.00
2022-11-28T19:34:00.777Z,101224.06
2022-11-28T19:36:32.767Z,101217.00
2022-11-28T19:39:01.113Z,101224.94
2022-11-28T19:41:29.967Z,101212.50
2022-11-28T19:43:58.261Z,101225.91
2022-11-28T19:46:31.921Z,101229.53
2022-11-28T19:49:01.768Z,101225.03
2022-11-28T19:51:30.999Z,101228.16
2022-11-28T19:54:03.237Z,101236.28
2022-11-28T19:56:32.492Z,101239.91
2022-11-28T19:59:00.622Z,101238.97
2022-11-28T20:01:28.814Z,101246.06
2022-11-28T20:04:00.360Z,101255.81
2022-11-28T20:06:31.530Z,101253.91
2022-11-28T20:09:01.597Z,101259.25
2022-11-28T20:11:32.334Z,101259.38
2022-11-28T20:14:02.033Z,101255.66
2022-11-28T20:16:31.253Z,101258.22
2022-11-28T20:19:00.391Z,101258.13
2022-11-28T20:21:30.621Z,101254.50
2022-11-28T20:24:04.210Z,101260.81
2022-11-28T20:26:35.507Z,101267.91
2022-11-28T20:29:03.787Z,101262.56
2022-11-28T20:31:34.400Z,101272.31
2022-11-28T20:34:02.969Z,101268.78
2022-11-28T20:36:33.195Z,101276.72
2022-11-28T20:39:01.175Z,101280.25
2022-11-28T20:41:30.264Z,101278.44
2022-11-28T20:44:00.880Z,101280.19
2022-11-28T20:46:33.636Z,101285.44
2022-11-28T20:49:04.192Z,101282.75
2022-11-28T20:51:35.376Z,101287.25
2022-11-28T20:54:05.092Z,101295.19
2022-11-28T20:56:51.626Z,101305.00
2022-11-28T20:59:23.406Z,101310.34
2022-11-28T21:01:51.560Z,101311.22
2022-11-28T21:04:19.867Z,101303.16
2022-11-28T21:06:50.056Z,101302.31
2022-11-28T21:09:20.457Z,101306.72
2022-11-28T21:11:58.604Z,101305.75
2022-11-28T21:14:27.936Z,101300.38
2022-11-28T21:16:56.767Z,101313.72
2022-11-28T21:19:24.826Z,101303.94
2022-11-28T21:21:54.747Z,101308.34
2022-11-28T21:24:22.765Z,101306.44
2022-11-28T21:26:53.900Z,101307.41
2022-11-28T21:29:24.383Z,101307.81
2022-11-28T21:31:52.398Z,101311.25
2022-11-28T21:34:20.482Z,101309.53
2022-11-28T21:36:48.463Z,101306.09
2022-11-28T21:39:20.073Z,101313.28
2022-11-28T21:41:48.418Z,101312.38
2022-11-28T21:44:16.444Z,101314.31
2022-11-28T21:46:44.397Z,101317.84
2022-11-28T21:49:12.716Z,101327.72
2022-11-28T21:51:40.758Z,101328.56
2022-11-28T21:54:08.695Z,101324.16
2022-11-28T21:56:38.027Z,101325.03
2022-11-28T21:59:06.079Z,101320.63
2022-11-28T22:01:34.012Z,101326.00
2022-11-28T22:04:03.230Z,101330.50
2022-11-28T22:06:31.421Z,101321.50
2022-11-28T22:08:59.918Z,101326.00
2022-11-28T22:11:29.187Z,101327.81
2022-11-28T22:13:58.380Z,101325.13
2022-11-28T22:16:28.203Z,101334.97
2022-11-28T22:18:59.192Z,101334.97
2022-11-28T22:24:15.790Z,101333.25
2022-11-28T22:26:43.661Z,101342.16
2022-11-28T22:29:12.989Z,101342.16
2022-11-28T22:31:40.982Z,101346.66
2022-11-28T22:34:09.689Z,101351.16
2022-11-28T22:36:37.672Z,101353.72
2022-11-28T22:39:06.269Z,101351.03
2022-11-28T22:41:34.901Z,101351.03
2022-11-28T22:44:04.207Z,101351.03
2022-11-28T22:46:34.196Z,101351.16
2022-11-28T22:49:02.855Z,101350.28
2022-11-28T22:51:31.887Z,101359.19
2022-11-28T22:54:02.388Z,101348.56
2022-11-28T22:56:31.616Z,101357.38
2022-11-28T22:58:59.763Z,101350.28
2022-11-28T23:01:30.137Z,101357.47
2022-11-28T23:03:59.956Z,101354.00
2022-11-28T23:06:29.781Z,101360.22
2022-11-28T23:08:59.105Z,101357.63
2022-11-28T23:11:30.575Z,101357.75
2022-11-28T23:13:58.581Z,101364.03
2022-11-28T23:16:29.171Z,101365.00
2022-11-28T23:19:00.153Z,101371.31
2022-11-28T23:21:30.939Z,101371.31
2022-11-28T23:23:59.012Z,101381.25
2022-11-28T23:26:30.138Z,101383.91
2022-11-28T23:29:00.097Z,101376.94
2022-11-28T23:31:30.524Z,101381.41
2022-11-28T23:34:01.364Z,101376.03
2022-11-28T23:36:32.335Z,101378.72
2022-11-28T23:39:05.786Z,101386.69
2022-11-28T23:41:34.033Z,101385.84
2022-11-28T23:44:03.984Z,101392.13
2022-11-28T23:46:32.016Z,101389.44
2022-11-28T23:49:01.290Z,101390.34
2022-11-28T23:51:29.307Z,101386.75
2022-11-28T23:53:57.348Z,101393.09
2022-11-28T23:56:27.504Z,101396.63
2022-11-28T23:58:56.916Z,101386.00
